createdAt,value
2024-03-05T00:00:27.039Z,2.08
2024-03-05T00:02:53.637Z,1.48
2024-03-05T00:05:20.235Z,2.17
2024-03-05T00:07:47.018Z,1.00
2024-03-05T00:10:14.604Z,1.10
2024-03-05T00:12:41.528Z,1.17
2024-03-05T00:15:08.622Z,1.73
2024-03-05T00:17:35.212Z,0.80
2024-03-05T00:20:02.202Z,1.55
2024-03-05T00:22:29.382Z,1.52
2024-03-05T00:24:56.281Z,1.58
2024-03-05T00:27:22.924Z,1.58
2024-03-05T00:29:49.615Z,1.10
2024-03-05T00:32:17.122Z,0.88
2024-03-05T00:34:43.764Z,2.10
2024-03-05T00:37:10.409Z,1.00
2024-03-05T00:39:37.047Z,1.48
2024-03-05T00:42:04.831Z,1.48
2024-03-05T00:44:31.464Z,1.30
2024-03-05T00:46:58.315Z,1.08
2024-03-05T00:49:25.162Z,0.85
2024-03-05T00:51:51.802Z,1.95
2024-03-05T00:54:18.443Z,1.73
2024-03-05T00:56:45.026Z,1.45
2024-03-05T00:59:12.544Z,1.23
2024-03-05T01:01:40.636Z,1.45
2024-03-05T01:04:09.131Z,1.90
2024-03-05T01:06:35.985Z,3.40
2024-03-05T01:09:02.729Z,1.25
2024-03-05T01:11:31.524Z,1.75
2024-03-05T01:13:58.793Z,3.10
2024-03-05T01:16:27.568Z,1.08
2024-03-05T01:18:56.661Z,1.48
2024-03-05T01:21:23.255Z,1.90
2024-03-05T01:23:49.994Z,1.75
2024-03-05T01:26:16.726Z,1.42
2024-03-05T01:28:43.303Z,2.88
2024-03-05T01:31:10.198Z,1.75
2024-03-05T01:33:37.352Z,1.40
2024-03-05T01:36:04.696Z,0.93
2024-03-05T01:38:31.466Z,1.90
2024-03-05T01:40:58.131Z,2.22
2024-03-05T01:43:24.993Z,1.27
2024-03-05T01:45:52.074Z,1.45
2024-03-05T01:48:19.475Z,1.27
2024-03-05T01:50:46.131Z,1.17
2024-03-05T01:53:16.531Z,1.42
2024-03-05T01:55:43.616Z,2.00
2024-03-05T01:58:10.375Z,1.02
2024-03-05T02:00:38.000Z,1.95
2024-03-05T02:03:06.191Z,1.27
2024-03-05T02:05:34.080Z,2.03
2024-03-05T02:08:03.145Z,1.00
2024-03-05T02:10:29.975Z,1.80
2024-03-05T02:12:56.604Z,1.58
2024-03-05T02:15:23.188Z,3.50
2024-03-05T02:17:51.440Z,1.25
2024-03-05T02:20:18.493Z,1.83
2024-03-05T02:22:45.889Z,0.82
2024-03-05T02:25:13.306Z,1.33
2024-03-05T02:27:41.606Z,0.90
2024-03-05T02:30:12.315Z,0.80
2024-03-05T02:32:42.181Z,1.45
2024-03-05T02:35:12.539Z,1.02
2024-03-05T02:37:40.026Z,2.10
2024-03-05T02:40:11.302Z,0.80
2024-03-05T02:42:38.395Z,0.57
2024-03-05T02:45:06.270Z,1.05
2024-03-05T02:47:33.306Z,1.35
2024-03-05T02:50:00.685Z,1.27
2024-03-05T02:52:29.598Z,1.23
2024-03-05T02:54:56.297Z,0.90
2024-03-05T02:57:22.874Z,0.70
2024-03-05T02:59:49.510Z,1.80
2024-03-05T03:02:16.197Z,2.00
2024-03-05T03:04:42.801Z,0.90
2024-03-05T03:07:09.440Z,0.80
2024-03-05T03:09:36.503Z,1.52
2024-03-05T03:12:03.327Z,1.25
2024-03-05T03:14:29.916Z,1.10
2024-03-05T03:16:58.549Z,1.33
2024-03-05T03:19:25.267Z,3.17
2024-03-05T03:21:52.551Z,1.00
2024-03-05T03:24:19.269Z,2.55
2024-03-05T03:26:46.268Z,1.02
2024-03-05T03:29:13.069Z,1.13
2024-03-05T03:31:47.429Z,0.82
2024-03-05T03:34:17.463Z,0.85
2024-03-05T03:36:44.785Z,1.10
2024-03-05T03:39:24.869Z,1.80
2024-03-05T03:41:56.263Z,1.88
2024-03-05T03:44:23.598Z,0.77
2024-03-05T03:46:53.649Z,0.85
2024-03-05T03:49:24.996Z,1.15
2024-03-05T03:51:53.241Z,1.90
2024-03-05T03:54:19.909Z,1.27
2024-03-05T03:56:47.119Z,3.15
2024-03-05T03:59:16.709Z,1.30
2024-03-05T04:01:49.700Z,1.42
2024-03-05T04:04:16.918Z,1.15
2024-03-05T04:06:43.940Z,0.93
2024-03-05T04:09:10.648Z,0.57
2024-03-05T04:11:37.643Z,0.73
2024-03-05T04:14:04.896Z,0.63
2024-03-05T04:16:32.220Z,0.63
2024-03-05T04:18:59.172Z,1.05
2024-03-05T04:21:26.823Z,0.70
2024-03-05T04:23:53.968Z,0.65
2024-03-05T04:26:28.367Z,1.10
2024-03-05T04:29:00.832Z,0.90
2024-03-05T04:31:37.581Z,0.68
2024-03-05T04:34:08.736Z,0.82
2024-03-05T04:36:38.285Z,2.25
2024-03-05T04:39:05.201Z,0.50
2024-03-05T04:41:31.879Z,0.95
2024-03-05T04:43:58.511Z,1.10
2024-03-05T04:46:26.087Z,1.55
2024-03-05T04:48:52.792Z,0.88
2024-03-05T04:51:19.688Z,1.20
2024-03-05T04:53:46.262Z,1.25
2024-03-05T04:56:13.570Z,1.70
2024-03-05T04:58:40.376Z,1.25
2024-03-05T05:01:07.057Z,1.48
2024-03-05T05:03:33.768Z,1.50
2024-03-05T05:06:01.392Z,0.90
2024-03-05T05:08:28.036Z,2.40
2024-03-05T05:10:54.751Z,1.58
2024-03-05T05:13:21.682Z,2.10
2024-03-05T05:15:48.954Z,0.82
2024-03-05T05:18:15.544Z,0.93
2024-03-05T05:20:42.500Z,1.63
2024-03-05T05:23:09.413Z,1.67
2024-03-05T05:25:36.154Z,0.88
2024-03-05T05:28:02.842Z,2.28
2024-03-05T05:30:29.437Z,3.20
2024-03-05T05:32:56.222Z,0.93
2024-03-05T05:35:23.033Z,1.17
2024-03-05T05:37:49.615Z,0.95
2024-03-05T05:40:20.810Z,2.45
2024-03-05T05:42:49.741Z,1.80
2024-03-05T05:45:16.866Z,0.75
2024-03-05T05:47:50.608Z,1.65
2024-03-05T05:50:21.110Z,0.50
2024-03-05T05:52:49.554Z,1.10
2024-03-05T05:55:20.685Z,0.60
2024-03-05T05:57:51.020Z,1.08
2024-03-05T06:00:25.939Z,1.00
2024-03-05T06:02:54.239Z,2.72
2024-03-05T06:05:24.526Z,0.98
2024-03-05T06:07:51.311Z,0.90
2024-03-05T06:10:20.998Z,1.27
2024-03-05T06:12:47.685Z,1.55
2024-03-05T06:15:14.391Z,4.15
2024-03-05T06:17:41.645Z,3.70
2024-03-05T06:20:11.621Z,4.00
2024-03-05T06:22:41.885Z,2.97
2024-03-05T06:25:09.553Z,3.78
2024-03-05T06:27:39.748Z,3.70
2024-03-05T06:30:14.402Z,3.97
2024-03-05T06:32:44.770Z,4.82
2024-03-05T06:35:12.290Z,5.00
2024-03-05T06:37:45.004Z,6.10
2024-03-05T06:40:12.946Z,6.55
2024-03-05T06:42:43.123Z,6.05
2024-03-05T06:45:10.124Z,5.20
2024-03-05T06:47:40.525Z,5.72
2024-03-05T06:50:08.782Z,6.47
2024-03-05T06:52:54.262Z,5.60
2024-03-05T06:55:39.495Z,6.93
2024-03-05T06:58:06.058Z,6.07
2024-03-05T07:00:32.673Z,7.30
2024-03-05T07:02:59.282Z,6.20
2024-03-05T07:05:25.907Z,7.43
2024-03-05T07:07:52.567Z,7.03
2024-03-05T07:10:22.582Z,9.73
2024-03-05T07:12:52.145Z,7.85
2024-03-05T07:15:18.850Z,8.20
2024-03-05T07:17:45.497Z,7.78
2024-03-05T07:20:23.978Z,6.88
2024-03-05T07:22:52.443Z,8.65
2024-03-05T07:25:19.319Z,7.32
2024-03-05T07:27:48.040Z,6.38
2024-03-05T07:30:18.490Z,6.32
2024-03-05T07:32:49.446Z,6.18
2024-03-05T07:35:18.450Z,5.70
2024-03-05T07:37:49.259Z,6.25
2024-03-05T07:40:22.034Z,6.97
2024-03-05T07:42:49.919Z,8.25
2024-03-05T07:45:16.868Z,6.35
2024-03-05T07:47:44.482Z,8.65
2024-03-05T07:50:13.365Z,10.57
2024-03-05T07:52:40.919Z,11.80
2024-03-05T07:55:12.352Z,11.82
2024-03-05T07:57:41.600Z,9.90
2024-03-05T08:00:13.517Z,10.27
2024-03-05T08:02:43.788Z,10.43
2024-03-05T08:05:10.729Z,13.80
2024-03-05T08:07:37.876Z,20.88
2024-03-05T08:10:09.036Z,23.27
2024-03-05T08:12:36.841Z,27.77
2024-03-05T08:15:04.419Z,29.88
2024-03-05T08:17:37.050Z,38.50
2024-03-05T08:20:05.013Z,34.50
2024-03-05T08:22:32.285Z,38.90
2024-03-05T08:24:58.993Z,37.22
2024-03-05T08:27:26.953Z,40.22
2024-03-05T08:29:53.555Z,40.78
2024-03-05T08:32:20.196Z,40.70
2024-03-05T08:34:46.972Z,46.20
2024-03-05T08:37:16.877Z,39.05
2024-03-05T08:39:43.595Z,38.90
2024-03-05T08:42:10.483Z,35.40
2024-03-05T08:44:37.288Z,32.65
2024-03-05T08:47:04.271Z,31.13
2024-03-05T08:49:30.870Z,29.48
2024-03-05T08:51:59.662Z,27.20
2024-03-05T08:54:27.087Z,25.20
2024-03-05T08:56:53.604Z,24.13
2024-03-05T08:59:20.524Z,21.63
2024-03-05T09:01:47.361Z,20.42
2024-03-05T09:04:14.017Z,19.15
2024-03-05T09:06:41.817Z,20.42
2024-03-05T09:09:08.570Z,18.45
2024-03-05T09:11:36.421Z,16.58
2024-03-05T09:14:03.994Z,15.32
2024-03-05T09:16:31.591Z,14.05
2024-03-05T09:18:58.802Z,13.77
2024-03-05T09:21:25.335Z,10.60
2024-03-05T09:23:51.989Z,8.77
2024-03-05T09:26:18.621Z,7.43
2024-03-05T09:28:45.337Z,7.55
2024-03-05T09:31:12.362Z,8.38
2024-03-05T09:33:39.952Z,9.45
2024-03-05T09:36:09.634Z,6.15
2024-03-05T09:38:36.311Z,7.72
2024-03-05T09:41:03.408Z,5.45
2024-03-05T09:43:31.167Z,5.15
2024-03-05T09:46:06.285Z,4.65
2024-03-05T09:48:34.632Z,5.10
2024-03-05T09:51:01.624Z,3.25
2024-03-05T09:53:29.141Z,3.28
2024-03-05T09:55:55.887Z,3.33
2024-03-05T09:58:40.531Z,2.60
2024-03-05T10:01:09.099Z,2.95
2024-03-05T10:03:37.241Z,2.92
2024-03-05T10:06:06.194Z,2.47
2024-03-05T10:08:32.843Z,2.50
2024-03-05T10:11:06.085Z,2.17
2024-03-05T10:13:37.197Z,3.72
2024-03-05T10:16:20.526Z,5.28
2024-03-05T10:18:48.367Z,2.55
2024-03-05T10:21:22.886Z,3.40
2024-03-05T10:23:58.712Z,1.42
2024-03-05T10:26:28.907Z,1.70
2024-03-05T10:28:58.067Z,2.28
2024-03-05T10:31:26.533Z,1.73
2024-03-05T10:33:57.574Z,1.52
2024-03-05T10:36:29.604Z,2.50
2024-03-05T10:38:56.812Z,1.67
2024-03-05T10:41:31.775Z,1.17
2024-03-05T10:44:02.582Z,2.20
2024-03-05T10:46:33.574Z,2.47
2024-03-05T10:49:01.745Z,1.90
2024-03-05T10:51:32.296Z,1.75
2024-03-05T10:54:02.756Z,1.92
2024-03-05T10:56:37.141Z,1.90
2024-03-05T10:59:42.099Z,1.63
2024-03-05T11:02:13.235Z,1.75
2024-03-05T11:04:43.756Z,1.30
2024-03-05T11:07:12.351Z,1.25
2024-03-05T11:09:39.980Z,2.35
2024-03-05T11:12:17.751Z,2.65
2024-03-05T11:14:47.650Z,1.25
2024-03-05T11:17:17.040Z,1.00
2024-03-05T11:19:44.371Z,1.20
2024-03-05T11:22:26.080Z,1.75
2024-03-05T11:24:56.762Z,1.20
2024-03-05T11:27:24.615Z,1.20
2024-03-05T11:30:20.538Z,2.33
2024-03-05T11:32:52.168Z,1.45
2024-03-05T11:37:56.376Z,2.45
2024-03-05T11:40:34.126Z,3.80
2024-03-05T11:43:01.678Z,1.25
2024-03-05T11:45:45.011Z,1.48
2024-03-05T11:48:16.655Z,2.60
2024-03-05T11:50:44.111Z,1.33
2024-03-05T11:53:11.415Z,1.05
2024-03-05T11:55:38.165Z,1.40
2024-03-05T11:58:05.680Z,1.35
2024-03-05T12:00:32.278Z,0.80
2024-03-05T12:02:59.092Z,0.65
2024-03-05T12:05:26.878Z,0.70
2024-03-05T12:08:03.491Z,0.80
2024-03-05T12:10:32.854Z,1.15
2024-03-05T12:13:02.942Z,0.60
2024-03-05T12:15:30.612Z,0.82
2024-03-05T12:17:57.844Z,1.08
2024-03-05T12:20:24.690Z,1.27
2024-03-05T12:22:51.791Z,1.23
2024-03-05T12:25:20.419Z,0.85
2024-03-05T12:27:48.688Z,0.82
2024-03-05T12:30:16.811Z,0.82
2024-03-05T12:32:45.533Z,1.50
2024-03-05T12:35:15.626Z,1.17
2024-03-05T12:37:42.460Z,0.70
2024-03-05T12:40:15.534Z,0.60
2024-03-05T12:42:42.725Z,1.63
2024-03-05T12:45:19.924Z,1.08
2024-03-05T12:47:56.242Z,0.90
2024-03-05T12:50:23.087Z,2.05
2024-03-05T12:53:00.477Z,0.85
2024-03-05T12:55:28.908Z,0.80
2024-03-05T12:58:12.589Z,1.40
2024-03-05T13:00:40.149Z,0.70
2024-03-05T13:03:08.328Z,1.00
2024-03-05T13:05:35.996Z,1.23
2024-03-05T13:08:03.176Z,0.60
2024-03-05T13:10:30.198Z,0.85
2024-03-05T13:12:56.911Z,0.75
2024-03-05T13:15:23.627Z,0.85
2024-03-05T13:17:53.090Z,1.75
2024-03-05T13:20:20.235Z,1.02
2024-03-05T13:22:47.897Z,2.15
2024-03-05T13:25:17.202Z,1.40
2024-03-05T13:27:45.329Z,3.03
2024-03-05T13:30:18.163Z,1.50
2024-03-05T13:32:49.242Z,2.50
2024-03-05T13:35:17.861Z,0.40
2024-03-05T13:37:45.907Z,0.65
2024-03-05T13:40:13.343Z,2.10
2024-03-05T13:42:40.620Z,1.95
2024-03-05T13:45:13.644Z,1.63
2024-03-05T13:47:40.718Z,1.90
2024-03-05T13:50:11.560Z,1.33
2024-03-05T13:52:41.294Z,1.17
2024-03-05T13:55:12.002Z,0.77
2024-03-05T13:57:39.094Z,1.38
2024-03-05T14:00:10.373Z,1.70
2024-03-05T14:02:37.207Z,0.80
2024-03-05T14:05:04.575Z,1.00
2024-03-05T14:07:31.953Z,1.95
2024-03-05T14:09:58.903Z,4.45
2024-03-05T14:12:27.553Z,3.03
2024-03-05T14:14:54.209Z,4.07
2024-03-05T14:17:24.483Z,3.03
2024-03-05T14:19:51.139Z,3.55
2024-03-05T14:22:18.548Z,3.25
2024-03-05T14:24:45.102Z,4.88
2024-03-05T14:27:13.462Z,3.45
2024-03-05T14:29:41.470Z,3.35
2024-03-05T14:32:08.816Z,3.28
2024-03-05T14:34:35.898Z,2.00
2024-03-05T14:37:04.771Z,2.30
2024-03-05T14:39:31.553Z,1.25
2024-03-05T14:41:58.180Z,2.67
2024-03-05T14:44:24.762Z,1.70
2024-03-05T14:46:51.385Z,3.30
2024-03-05T14:49:18.055Z,1.85
2024-03-05T14:51:44.989Z,1.10
2024-03-05T14:54:11.692Z,1.40
2024-03-05T14:56:38.360Z,1.20
2024-03-05T14:59:05.846Z,2.05
2024-03-05T15:01:33.695Z,3.17
2024-03-05T15:04:01.707Z,1.48
2024-03-05T15:06:28.451Z,1.20
2024-03-05T15:08:55.723Z,1.00
2024-03-05T15:11:23.578Z,1.13
2024-03-05T15:13:51.480Z,1.45
2024-03-05T15:16:19.905Z,1.33
2024-03-05T15:18:47.759Z,1.35
2024-03-05T15:21:17.406Z,1.58
2024-03-05T15:23:44.141Z,1.60
2024-03-05T15:26:11.797Z,0.80
2024-03-05T15:28:38.660Z,1.38
2024-03-05T15:31:10.560Z,0.95
2024-03-05T15:33:43.398Z,1.10
2024-03-05T15:36:09.977Z,1.10
2024-03-05T15:38:36.844Z,0.90
2024-03-05T15:41:05.339Z,1.17
2024-03-05T15:43:35.086Z,0.75
2024-03-05T15:46:01.841Z,1.00
2024-03-05T15:48:31.649Z,1.63
2024-03-05T15:50:59.373Z,1.02
2024-03-05T15:53:26.215Z,0.90
2024-03-05T15:56:02.729Z,2.78
2024-03-05T15:58:44.905Z,1.08
2024-03-05T16:03:52.616Z,2.40
2024-03-05T16:06:29.272Z,1.52
2024-03-05T16:08:56.016Z,1.10
2024-03-05T16:11:25.920Z,1.85
2024-03-05T16:13:52.927Z,1.33
2024-03-05T16:16:21.230Z,2.00
2024-03-05T16:18:47.984Z,1.15
2024-03-05T16:21:14.514Z,1.50
2024-03-05T16:23:41.194Z,5.13
2024-03-05T16:26:07.834Z,1.52
2024-03-05T16:28:38.790Z,1.88
2024-03-05T16:31:06.220Z,1.63
2024-03-05T16:33:33.945Z,2.00
2024-03-05T16:36:00.667Z,2.58
2024-03-05T16:38:27.513Z,1.48
2024-03-05T16:40:54.338Z,1.80
2024-03-05T16:43:21.097Z,2.78
2024-03-05T16:45:48.726Z,2.08
2024-03-05T16:48:15.571Z,4.85
2024-03-05T16:50:42.232Z,2.92
2024-03-05T16:53:10.482Z,3.67
2024-03-05T16:55:37.873Z,3.67
2024-03-05T16:58:11.205Z,1.88
2024-03-05T17:00:52.564Z,2.47
2024-03-05T17:03:21.846Z,1.40
2024-03-05T17:05:51.937Z,2.58
2024-03-05T17:08:21.660Z,5.00
2024-03-05T17:10:49.512Z,3.30
2024-03-05T17:13:20.707Z,2.20
2024-03-05T17:15:54.640Z,2.60
2024-03-05T17:18:24.709Z,2.95
2024-03-05T17:20:52.088Z,4.88
2024-03-05T17:23:25.701Z,2.38
2024-03-05T17:25:53.727Z,1.75
2024-03-05T17:28:20.482Z,2.25
2024-03-05T17:30:49.596Z,1.60
2024-03-05T17:33:17.281Z,1.73
2024-03-05T17:35:43.986Z,3.08
2024-03-05T17:38:14.558Z,3.53
2024-03-05T17:40:41.798Z,1.30
2024-03-05T17:43:08.849Z,3.55
2024-03-05T17:45:35.554Z,2.53
2024-03-05T17:48:08.141Z,3.35
2024-03-05T17:50:38.029Z,2.42
2024-03-05T17:53:06.820Z,2.35
2024-03-05T17:55:35.873Z,2.78
2024-03-05T17:58:05.175Z,2.22
2024-03-05T18:00:42.681Z,2.72
2024-03-05T18:03:12.071Z,3.30
2024-03-05T18:05:39.527Z,3.30
2024-03-05T18:08:06.390Z,4.03
2024-03-05T18:10:35.851Z,5.68
2024-03-05T18:13:05.928Z,2.92
2024-03-05T18:15:33.003Z,2.33
2024-03-05T18:17:59.802Z,2.35
2024-03-05T18:20:30.053Z,2.28
2024-03-05T18:23:00.464Z,2.53
2024-03-05T18:25:28.296Z,2.20
2024-03-05T18:27:57.899Z,3.50
2024-03-05T18:30:36.343Z,4.07
2024-03-05T18:33:07.394Z,1.90
2024-03-05T18:35:35.104Z,2.70
2024-03-05T18:38:04.652Z,2.65
2024-03-05T18:40:34.220Z,1.73
2024-03-05T18:43:00.867Z,3.45
2024-03-05T18:45:33.103Z,4.57
2024-03-05T18:48:05.971Z,2.90
2024-03-05T18:50:36.904Z,6.22
2024-03-05T18:53:06.932Z,4.13
2024-03-05T18:55:37.202Z,2.72
2024-03-05T18:58:07.654Z,3.58
2024-03-05T19:00:34.673Z,3.40
2024-03-05T19:03:01.992Z,3.20
2024-03-05T19:05:28.736Z,5.63
2024-03-05T19:07:55.426Z,2.92
2024-03-05T19:10:22.040Z,3.45
2024-03-05T19:12:48.981Z,1.92
2024-03-05T19:15:18.770Z,1.63
2024-03-05T19:17:48.833Z,3.20
2024-03-05T19:20:16.250Z,1.63
2024-03-05T19:22:43.196Z,1.15
2024-03-05T19:25:13.590Z,1.48
2024-03-05T19:27:42.299Z,1.08
2024-03-05T19:30:11.784Z,1.02
2024-03-05T19:32:40.270Z,1.55
2024-03-05T19:35:11.297Z,1.48
2024-03-05T19:37:41.518Z,1.13
2024-03-05T19:40:09.254Z,1.17
2024-03-05T19:42:35.944Z,1.60
2024-03-05T19:45:02.543Z,1.15
2024-03-05T19:47:30.403Z,1.83
2024-03-05T19:49:57.166Z,1.45
2024-03-05T19:52:24.435Z,0.85
2024-03-05T19:54:51.206Z,3.67
2024-03-05T19:57:19.031Z,4.35
2024-03-05T19:59:45.634Z,14.80
2024-03-05T20:02:12.244Z,26.75
2024-03-05T20:04:39.081Z,11.30
2024-03-05T20:07:10.005Z,6.22
2024-03-05T20:09:45.393Z,1.80
2024-03-05T20:12:12.965Z,1.83
2024-03-05T20:14:39.601Z,3.63
2024-03-05T20:17:08.581Z,5.45
2024-03-05T20:19:40.362Z,2.50
2024-03-05T20:22:41.826Z,5.45
2024-03-05T20:25:23.454Z,3.75
2024-03-05T20:31:02.233Z,3.63
2024-03-05T20:33:43.728Z,2.17
2024-03-05T20:36:23.751Z,3.70
2024-03-05T20:38:58.832Z,1.45
2024-03-05T20:41:36.670Z,0.70
2024-03-05T20:44:11.394Z,0.93
2024-03-05T20:46:40.612Z,1.38
2024-03-05T20:49:10.401Z,3.67
2024-03-05T20:51:37.933Z,0.60
2024-03-05T20:54:10.400Z,0.52
2024-03-05T20:56:36.980Z,0.40
2024-03-05T20:59:05.834Z,0.50
2024-03-05T21:01:32.945Z,1.88
2024-03-05T21:04:01.500Z,0.77
2024-03-05T21:06:28.195Z,0.40
2024-03-05T21:08:54.781Z,1.27
2024-03-05T21:11:22.265Z,0.65
2024-03-05T21:13:48.832Z,0.70
2024-03-05T21:16:15.488Z,0.68
2024-03-05T21:18:42.124Z,0.68
2024-03-05T21:21:14.800Z,0.40
2024-03-05T21:23:42.823Z,0.60
2024-03-05T21:26:20.767Z,0.40
2024-03-05T21:28:56.088Z,0.52
2024-03-05T21:31:22.785Z,0.50
2024-03-05T21:33:50.116Z,0.50
2024-03-05T21:36:16.811Z,0.85
2024-03-05T21:38:43.364Z,0.52
2024-03-05T21:41:13.108Z,0.90
2024-03-05T21:43:41.082Z,0.47
2024-03-05T21:46:09.180Z,0.43
2024-03-05T21:48:35.770Z,1.38
2024-03-05T21:51:06.893Z,0.50
2024-03-05T21:53:39.014Z,0.38
2024-03-05T21:56:06.140Z,0.82
2024-03-05T21:58:32.756Z,0.50
2024-03-05T22:00:59.350Z,1.00
2024-03-05T22:03:25.917Z,0.57
2024-03-05T22:05:52.515Z,0.55
2024-03-05T22:08:19.390Z,0.40
2024-03-05T22:10:46.592Z,0.40
2024-03-05T22:13:13.273Z,0.40
2024-03-05T22:15:39.829Z,0.65
2024-03-05T22:18:06.720Z,0.40
2024-03-05T22:20:33.335Z,0.30
2024-03-05T22:23:00.636Z,0.30
2024-03-05T22:25:27.307Z,0.43
2024-03-05T22:27:53.854Z,0.32
2024-03-05T22:30:20.730Z,0.40
2024-03-05T22:32:47.620Z,0.30
2024-03-05T22:35:14.696Z,0.40
2024-03-05T22:37:41.457Z,0.50
2024-03-05T22:40:09.695Z,0.30
2024-03-05T22:42:36.223Z,0.40
2024-03-05T22:45:04.076Z,0.40
2024-03-05T22:47:30.776Z,0.40
2024-03-05T22:49:58.136Z,0.40
2024-03-05T22:52:24.841Z,0.73
2024-03-05T22:54:51.533Z,0.30
2024-03-05T22:57:18.209Z,0.50
2024-03-05T22:59:44.749Z,1.05
2024-03-05T23:02:11.807Z,0.40
2024-03-05T23:04:38.559Z,0.65
2024-03-05T23:07:05.900Z,0.60
2024-03-05T23:09:32.485Z,1.25
2024-03-05T23:11:59.212Z,0.40
2024-03-05T23:14:25.822Z,0.55
2024-03-05T23:16:52.562Z,0.47
2024-03-05T23:19:19.143Z,0.60
2024-03-05T23:21:45.755Z,1.65
2024-03-05T23:24:12.336Z,0.30
2024-03-05T23:26:38.877Z,0.38
2024-03-05T23:29:05.452Z,0.40
2024-03-05T23:31:32.174Z,0.35
2024-03-05T23:33:58.808Z,0.40
2024-03-05T23:36:25.380Z,0.30
2024-03-05T23:38:52.096Z,0.93
2024-03-05T23:41:28.600Z,0.30
2024-03-05T23:43:58.456Z,0.30
2024-03-05T23:46:25.052Z,0.30
2024-03-05T23:48:51.667Z,0.30
2024-03-05T23:51:18.697Z,0.20
2024-03-05T23:53:45.389Z,0.20
2024-03-05T23:56:12.217Z,0.30
2024-03-05T23:58:41.880Z,0.28
